Time;durP1;ratioP1;P1;durP2;ratioP2;P2;SDS_P1;SDS_P2;PMS_P1;PMS_P2;Temp;Humidity;BMP_temperature;BMP_pressure;BME280_temperature;BME280_humidity;BME280_pressure;Samples;Min_cycle;Max_cycle;Signal;HPM_P1;HPM_P2
2023/03/20 00:00:56;;;;;;;11.23;6.47;;;9.10;99.90;;;;;;5155112;27;20046;-78
2023/03/20 00:03:22;;;;;;;11.93;6.70;;;9.00;99.90;;;;;;5155069;27;20057;-78
2023/03/20 00:05:49;;;;;;;10.18;5.93;;;9.00;99.90;;;;;;5155292;27;20129;-79
2023/03/20 00:08:15;;;;;;;;;;;8.90;99.90;;;;;;5155459;27;20046;-77
2023/03/20 00:10:43;;;;;;;11.35;6.00;;;8.90;99.90;;;;;;5155104;27;19964;-78
2023/03/20 00:13:21;;;;;;;10.52;6.07;;;9.30;99.90;;;;;;5154823;27;20130;-78
2023/03/20 00:15:47;;;;;;;10.88;6.13;;;8.90;99.90;;;;;;5154948;27;20371;-77
2023/03/20 00:18:19;;;;;;;12.73;6.97;;;8.90;99.90;;;;;;5154929;27;20103;-77
2023/03/20 00:20:52;;;;;;;10.77;6.68;;;8.90;99.90;;;;;;5154823;27;20367;-77
2023/03/20 00:23:18;;;;;;;10.90;6.70;;;9.10;99.90;;;;;;5136622;27;20439;-78
2023/03/20 00:25:45;;;;;;;11.30;6.82;;;9.20;99.90;;;;;;5154479;27;20039;-79
2023/03/20 00:28:50;;;;;;;12.65;6.13;;;8.90;99.90;;;;;;5154791;27;20121;-77
2023/03/20 00:31:32;;;;;;;12.82;6.60;;;8.90;99.90;;;;;;5154739;27;20093;-78
2023/03/20 00:34:00;;;;;;;11.68;6.70;;;9.70;99.90;;;;;;5154650;27;20089;-78
2023/03/20 00:36:26;;;;;;;13.70;6.93;;;8.90;99.90;;;;;;5154624;27;20099;-77
2023/03/20 00:38:52;;;;;;;16.52;6.95;;;8.90;99.90;;;;;;5154685;27;20078;-78
2023/03/20 00:41:28;;;;;;;11.47;6.50;;;9.60;99.90;;;;;;5154663;27;20043;-77
2023/03/20 00:43:58;;;;;;;14.93;7.45;;;8.90;99.90;;;;;;5154669;27;20038;-77
2023/03/20 00:46:25;;;;;;;13.02;7.00;;;9.40;99.90;;;;;;5154698;27;20039;-78
2023/03/20 00:48:51;;;;;;;16.03;7.93;;;9.20;99.90;;;;;;5154563;27;20042;-79
2023/03/20 00:51:18;;;;;;;15.52;7.57;;;8.80;99.90;;;;;;5154431;27;20129;-77
2023/03/20 00:53:44;;;;;;;17.52;7.63;;;8.80;99.90;;;;;;5154607;27;20049;-77
2023/03/20 00:56:40;;;;;;;19.27;8.15;;;9.00;99.90;;;;;;5137334;27;20051;-78
2023/03/20 00:59:13;;;;;;;20.60;8.07;;;8.80;99.90;;;;;;5067916;27;20057;-77
2023/03/20 01:01:39;;;;;;;18.85;9.02;;;8.90;99.90;;;;;;5158664;27;20393;-78
2023/03/20 01:04:12;;;;;;;21.35;8.88;;;8.80;99.90;;;;;;5158107;27;20048;-78
2023/03/20 01:06:38;;;;;;;19.42;9.55;;;8.80;99.90;;;;;;5158193;27;20050;-79
2023/03/20 01:09:04;;;;;;;26.25;9.88;;;9.50;99.90;;;;;;5157859;27;20049;-76
2023/03/20 01:11:30;;;;;;;24.67;8.55;;;8.70;99.90;;;;;;5158077;27;20078;-77
2023/03/20 01:13:56;;;;;;;21.45;8.43;;;8.70;99.90;;;;;;5157886;27;20051;-78
2023/03/20 01:16:24;;;;;;;22.35;9.43;;;8.70;99.90;;;;;;5157857;27;20042;-78
2023/03/20 01:18:50;;;;;;;20.00;9.27;;;8.70;99.90;;;;;;5158074;27;20091;-77
2023/03/20 01:21:17;;;;;;;20.50;8.13;;;8.70;99.90;;;;;;5157854;27;20435;-77
2023/03/20 01:23:42;;;;;;;22.00;8.68;;;8.90;99.90;;;;;;5158321;27;20126;-78
2023/03/20 01:26:41;;;;;;;16.85;7.00;;;8.70;99.90;;;;;;5157693;27;20460;-77
2023/03/20 01:29:17;;;;;;;15.65;7.18;;;8.70;99.90;;;;;;5157605;27;20087;-78
2023/03/20 01:31:43;;;;;;;14.75;6.53;;;8.80;99.90;;;;;;5157635;27;20034;-77
2023/03/20 01:34:10;;;;;;;12.97;6.10;;;8.60;99.90;;;;;;5157418;27;20068;-77
2023/03/20 01:36:37;;;;;;;12.85;6.13;;;9.20;99.90;;;;;;5157289;27;20102;-77
2023/03/20 01:39:03;;;;;;;11.77;5.25;;;9.00;99.90;;;;;;5157480;27;20402;-78
2023/03/20 01:41:30;;;;;;;11.45;5.55;;;8.60;99.90;;;;;;5157381;27;20053;-78
2023/03/20 01:43:56;;;;;;;11.73;5.50;;;8.70;99.90;;;;;;5157369;27;20042;-78
2023/03/20 01:46:30;;;;;;;13.05;5.57;;;8.80;99.90;;;;;;5157532;27;20121;-77
2023/03/20 01:49:17;;;;;;;8.75;4.70;;;8.50;99.90;;;;;;5157400;27;20509;-77
2023/03/20 01:51:43;;;;;;;10.15;4.90;;;8.50;99.90;;;;;;5157027;27;20146;-78
2023/03/20 01:54:22;;;;;;;12.02;5.35;;;8.70;99.90;;;;;;5157431;27;20086;-78
2023/03/20 01:56:55;;;;;;;10.73;5.15;;;8.50;99.90;;;;;;5157136;27;20047;-76
2023/03/20 01:59:48;;;;;;;9.85;5.05;;;8.40;99.90;;;;;;5157135;27;20125;-78
2023/03/20 02:02:20;;;;;;;12.23;5.35;;;8.40;99.90;;;;;;5156892;27;20398;-78
2023/03/20 02:04:48;;;;;;;9.48;4.82;;;8.40;99.90;;;;;;5156999;27;20077;-79
2023/03/20 02:07:17;;;;;;;13.25;5.00;;;8.40;99.90;;;;;;5156051;27;20042;-78
2023/03/20 02:09:45;;;;;;;10.82;5.32;;;8.40;99.90;;;;;;5156539;27;20047;-76
2023/03/20 02:12:11;;;;;;;11.57;4.95;;;8.40;99.90;;;;;;5156871;27;20095;-77
2023/03/20 02:14:37;;;;;;;10.02;4.80;;;8.40;99.90;;;;;;5156591;27;20419;-78
2023/03/20 02:17:05;;;;;;;8.40;4.78;;;8.40;99.90;;;;;;5156745;27;20075;-76
2023/03/20 02:20:07;;;;;;;12.90;5.30;;;8.50;99.90;;;;;;5156660;27;20051;-77
2023/03/20 02:22:41;;;;;;;8.60;3.95;;;8.40;99.90;;;;;;5133109;27;20073;-79
2023/03/20 02:25:36;;;;;;;7.85;4.10;;;8.40;99.90;;;;;;5157268;27;20435;-78
2023/03/20 02:28:39;;;;;;;8.40;4.78;;;8.40;99.90;;;;;;5156478;27;20171;-79
2023/03/20 02:31:42;;;;;;;8.88;4.40;;;8.40;99.90;;;;;;5156375;27;20082;-77
2023/03/20 02:34:48;;;;;;;10.13;4.65;;;8.40;99.90;;;;;;5156240;27;20050;-79
2023/03/20 02:37:22;;;;;;;13.57;5.28;;;8.40;99.90;;;;;;5153033;27;20050;-78
2023/03/20 02:40:15;;;;;;;13.55;5.65;;;8.40;99.90;;;;;;5156781;27;20051;-78
2023/03/20 02:43:02;;;;;;;11.45;5.25;;;8.40;99.90;;;;;;5156275;27;20043;-78
2023/03/20 02:45:33;;;;;;;11.73;5.65;;;8.30;99.90;;;;;;5156317;27;20054;-78
2023/03/20 02:48:22;;;;;;;12.48;5.68;;;8.30;99.90;;;;;;5156091;27;20064;-77
2023/03/20 02:51:03;;;;;;;11.40;5.72;;;8.30;99.90;;;;;;5155774;27;20049;-77
2023/03/20 02:53:55;;;;;;;13.63;6.05;;;8.30;99.90;;;;;;5155960;27;20047;-77
2023/03/20 02:56:34;;;;;;;12.63;5.55;;;8.80;99.90;;;;;;5155531;27;20473;-77
2023/03/20 02:59:24;;;;;;;13.50;6.72;;;8.30;99.90;;;;;;5155871;27;20042;-77
2023/03/20 03:02:01;;;;;;;14.02;7.07;;;8.30;99.90;;;;;;5155849;27;20130;-77
2023/03/20 03:04:31;;;;;;;19.80;7.47;;;8.30;99.90;;;;;;5155813;27;20046;-76
2023/03/20 03:06:58;;;;;;;15.80;7.55;;;8.30;99.90;;;;;;5155832;27;20043;-77
2023/03/20 03:09:33;;;;;;;14.15;7.20;;;8.90;99.90;;;;;;5155782;27;20078;-77
2023/03/20 03:12:11;;;;;;;17.15;7.93;;;8.20;99.90;;;;;;5155639;27;20049;-76
2023/03/20 03:14:47;;;;;;;15.00;7.25;;;8.20;99.90;;;;;;5155788;27;20045;-77
2023/03/20 03:17:15;;;;;;;17.25;8.07;;;8.20;99.90;;;;;;5156056;27;20047;-78
2023/03/20 03:19:48;;;;;;;16.95;8.60;;;8.20;99.90;;;;;;5155599;27;20435;-79
2023/03/20 03:22:15;;;;;;;21.13;8.80;;;8.20;99.90;;;;;;5155437;27;20097;-77
2023/03/20 03:24:49;;;;;;;15.60;8.48;;;8.90;99.90;;;;;;5155656;27;20049;-77
2023/03/20 03:27:17;;;;;;;16.38;8.27;;;8.20;99.90;;;;;;5155568;27;20042;-77
2023/03/20 03:29:48;;;;;;;19.35;9.80;;;8.20;99.90;;;;;;5155279;27;20038;-78
2023/03/20 03:32:35;;;;;;;18.00;9.27;;;8.30;99.90;;;;;;5155518;27;20043;-78
2023/03/20 03:35:04;;;;;;;17.50;8.82;;;8.20;99.90;;;;;;5155305;27;20047;-78
2023/03/20 03:37:57;;;;;;;19.27;9.80;;;8.20;99.90;;;;;;5155343;27;20045;-78
2023/03/20 03:40:29;;;;;;;19.30;9.38;;;8.20;99.90;;;;;;5155192;27;20053;-78
2023/03/20 03:43:01;;;;;;;16.08;8.82;;;8.10;99.90;;;;;;5155298;27;20046;-77
2023/03/20 03:45:35;;;;;;;19.10;9.02;;;8.40;99.90;;;;;;5136781;27;20054;-78
2023/03/20 03:48:13;;;;;;;16.50;8.85;;;8.10;99.90;;;;;;5155233;27;20042;-77
2023/03/20 03:50:53;;;;;;;20.33;9.52;;;8.20;99.90;;;;;;5154787;27;20378;-79
2023/03/20 03:53:24;;;;;;;21.13;9.82;;;8.20;99.90;;;;;;5155034;27;20076;-78
2023/03/20 03:55:53;;;;;;;20.67;10.32;;;8.10;99.90;;;;;;5155464;27;20045;-79
2023/03/20 03:58:31;;;;;;;19.75;9.73;;;8.20;99.90;;;;;;5155065;27;20051;-77
2023/03/20 04:00:58;;;;;;;21.02;10.77;;;8.20;99.90;;;;;;5155076;27;20058;-78
2023/03/20 04:03:30;;;;;;;19.63;9.75;;;8.20;99.90;;;;;;5154992;27;20509;-78
2023/03/20 04:05:57;;;;;;;19.17;9.43;;;8.10;99.90;;;;;;5155468;27;20043;-77
2023/03/20 04:08:23;;;;;;;20.65;9.23;;;8.10;99.90;;;;;;5154996;27;20074;-78
2023/03/20 04:10:48;;;;;;;20.10;9.43;;;8.20;99.90;;;;;;5154953;27;20115;-76
2023/03/20 04:13:15;;;;;;;16.60;8.32;;;8.10;99.90;;;;;;5154779;27;20039;-77
2023/03/20 04:15:41;;;;;;;19.40;8.82;;;8.10;99.90;;;;;;5155013;27;20053;-77
2023/03/20 04:18:08;;;;;;;18.27;9.15;;;8.10;99.90;;;;;;5136414;27;20043;-77
2023/03/20 04:20:33;;;;;;;18.35;8.70;;;8.10;99.90;;;;;;5137152;27;20424;-77
2023/03/20 04:23:00;;;;;;;19.23;7.53;;;8.10;99.90;;;;;;5155000;27;20045;-77
2023/03/20 04:25:26;;;;;;;18.83;8.18;;;8.40;99.90;;;;;;5136647;27;20061;-77
2023/03/20 04:27:52;;;;;;;19.30;8.27;;;8.20;99.90;;;;;;5154858;27;20125;-76
2023/03/20 04:30:18;;;;;;;20.08;7.60;;;8.10;99.90;;;;;;5154769;27;20070;-77
2023/03/20 04:32:44;;;;;;;17.33;6.85;;;8.10;99.90;;;;;;5158338;27;20092;-77
2023/03/20 04:35:10;;;;;;;14.93;6.25;;;8.00;99.90;;;;;;5158777;27;20042;-79
2023/03/20 04:37:35;;;;;;;14.52;6.60;;;8.50;99.90;;;;;;5140604;27;20082;-77
2023/03/20 04:40:01;;;;;;;16.98;7.05;;;8.00;99.90;;;;;;5158516;27;20047;-77
2023/03/20 04:42:27;;;;;;;14.52;6.55;;;8.00;99.90;;;;;;5158601;27;20047;-79
2023/03/20 04:44:52;;;;;;;13.68;6.85;;;7.90;99.90;;;;;;5140002;27;20486;-78
2023/03/20 04:47:18;;;;;;;11.90;5.97;;;8.20;99.90;;;;;;5158570;27;20394;-79
2023/03/20 04:49:44;;;;;;;11.15;5.10;;;8.00;99.90;;;;;;5158537;27;20038;-79
2023/03/20 04:52:09;;;;;;;14.77;5.78;;;7.90;99.90;;;;;;5158429;27;20432;-78
2023/03/20 04:54:35;;;;;;;12.88;5.47;;;7.80;99.90;;;;;;5158435;27;20047;-77
2023/03/20 04:57:01;;;;;;;14.23;5.45;;;7.90;99.90;;;;;;5158226;27;20127;-79
2023/03/20 04:59:26;;;;;;;11.82;5.35;;;7.90;99.90;;;;;;5139646;27;20140;-79
2023/03/20 05:01:52;;;;;;;7.43;4.70;;;7.90;99.90;;;;;;5158088;27;20050;-78
2023/03/20 05:04:17;;;;;;;9.55;5.15;;;7.90;99.90;;;;;;5158087;27;20062;-77
2023/03/20 05:06:47;;;;;;;11.55;4.97;;;7.90;99.90;;;;;;5158034;27;20065;-77
2023/03/20 05:09:12;;;;;;;9.70;5.40;;;8.10;99.90;;;;;;5139829;27;20489;-80
2023/03/20 05:11:38;;;;;;;11.18;5.57;;;7.90;99.90;;;;;;5157980;27;20042;-78
2023/03/20 05:14:05;;;;;;;15.13;6.47;;;8.00;99.90;;;;;;5157848;27;20043;-78
2023/03/20 05:16:31;;;;;;;;;;;7.80;99.90;;;;;;5158268;27;20039;-77
2023/03/20 05:18:56;;;;;;;14.77;7.22;;;7.80;99.90;;;;;;5157477;27;19926;-77
2023/03/20 05:21:22;;;;;;;11.77;6.68;;;7.80;99.90;;;;;;5158096;27;20042;-78
2023/03/20 05:23:47;;;;;;;13.13;6.57;;;7.80;99.90;;;;;;5157906;27;20061;-79
2023/03/20 05:26:13;;;;;;;10.95;6.47;;;7.90;99.90;;;;;;5157637;27;20043;-79
2023/03/20 05:28:39;;;;;;;10.50;6.15;;;7.80;99.90;;;;;;5157712;27;20107;-79
2023/03/20 05:31:05;;;;;;;12.98;6.93;;;7.80;99.90;;;;;;5157721;27;20111;-78
2023/03/20 05:33:30;;;;;;;17.00;6.67;;;7.80;99.90;;;;;;5158043;27;20043;-77
2023/03/20 05:35:56;;;;;;;18.73;7.47;;;7.80;99.90;;;;;;5157557;27;20050;-78
2023/03/20 05:38:22;;;;;;;12.38;7.10;;;8.30;99.90;;;;;;5157379;27;20038;-79
2023/03/20 05:40:48;;;;;;;16.70;7.60;;;8.10;99.90;;;;;;5157496;27;20054;-77
2023/03/20 05:43:14;;;;;;;18.17;7.60;;;7.80;99.90;;;;;;5157051;27;20474;-77
2023/03/20 05:45:42;;;;;;;14.80;7.78;;;7.80;99.90;;;;;;5157338;27;20083;-81
2023/03/20 05:48:08;;;;;;;12.52;7.13;;;7.80;99.90;;;;;;5159922;27;20107;-77
2023/03/20 05:50:33;;;;;;;19.65;9.15;;;7.80;99.90;;;;;;5159266;27;20490;-79
2023/03/20 05:52:59;;;;;;;13.75;7.72;;;7.80;99.90;;;;;;5156570;27;20099;-81
2023/03/20 05:55:25;;;;;;;15.40;8.40;;;8.10;99.90;;;;;;5157153;27;20042;-79
2023/03/20 05:57:51;;;;;;;18.73;8.95;;;7.80;99.90;;;;;;5157182;27;20352;-79
2023/03/20 06:00:17;;;;;;;15.68;8.52;;;7.80;99.90;;;;;;5138794;27;20502;-79
2023/03/20 06:02:43;;;;;;;16.83;9.02;;;7.80;99.90;;;;;;5157118;27;20117;-79
2023/03/20 06:05:09;;;;;;;14.82;8.32;;;8.00;99.90;;;;;;5157259;27;20078;-79
2023/03/20 06:07:34;;;;;;;16.20;9.07;;;7.80;99.90;;;;;;5156740;27;20039;-80
2023/03/20 06:10:00;;;;;;;15.90;8.27;;;7.80;99.90;;;;;;5138508;27;20047;-80
2023/03/20 06:12:26;;;;;;;13.10;7.60;;;7.80;99.90;;;;;;5121558;27;20042;-79
2023/03/20 06:14:51;;;;;;;14.77;8.70;;;7.80;99.90;;;;;;5156529;27;20138;-79
2023/03/20 06:17:17;;;;;;;16.02;8.70;;;8.40;99.90;;;;;;5156797;27;20466;-79
2023/03/20 06:19:42;;;;;;;18.27;7.90;;;7.90;99.90;;;;;;5157020;27;20091;-79
2023/03/20 06:22:08;;;;;;;17.55;8.35;;;7.90;99.90;;;;;;5122488;27;20401;-79
2023/03/20 06:24:34;;;;;;;14.55;8.07;;;7.90;99.90;;;;;;5139100;27;20130;-80
2023/03/20 06:27:00;;;;;;;14.57;7.78;;;7.90;99.90;;;;;;5157483;27;20034;-79
2023/03/20 06:29:27;;;;;;;11.63;7.65;;;8.00;99.90;;;;;;5158400;27;20046;-79
2023/03/20 06:31:53;;;;;;;11.48;6.55;;;7.90;99.90;;;;;;5140589;27;20438;-80
2023/03/20 06:34:18;;;;;;;10.82;7.20;;;7.90;99.90;;;;;;5141874;27;20063;-79
2023/03/20 06:36:44;;;;;;;12.18;6.70;;;8.70;99.90;;;;;;5161020;27;20077;-80
2023/03/20 06:39:10;;;;;;;12.40;7.30;;;8.00;99.90;;;;;;5158527;27;20085;-81
2023/03/20 06:41:36;;;;;;;14.43;6.68;;;8.00;99.90;;;;;;5156635;27;20047;-80
2023/03/20 06:44:02;;;;;;;11.70;6.28;;;8.00;99.90;;;;;;5138174;27;20045;-81
2023/03/20 06:46:28;;;;;;;11.85;6.10;;;8.00;99.90;;;;;;5138398;27;20410;-81
2023/03/20 06:48:54;;;;;;;13.20;7.03;;;8.10;99.90;;;;;;5120833;27;20042;-81
2023/03/20 06:51:20;;;;;;;15.27;6.85;;;8.10;99.90;;;;;;5138270;27;20530;-81
2023/03/20 06:53:46;;;;;;;12.45;6.68;;;8.20;99.90;;;;;;5137220;27;20133;-83
2023/03/20 06:56:11;;;;;;;14.02;6.70;;;8.20;99.90;;;;;;5156103;27;20038;-83
2023/03/20 06:58:38;;;;;;;13.63;6.78;;;8.20;99.90;;;;;;5138593;27;20039;-84
2023/03/20 07:01:12;;;;;;;13.23;6.30;;;8.30;99.90;;;;;;5141862;27;20541;-81
2023/03/20 07:03:38;;;;;;;10.85;6.22;;;8.30;99.90;;;;;;5138019;27;20039;-80
2023/03/20 07:06:05;;;;;;;18.67;8.18;;;8.40;99.90;;;;;;5137565;27;20099;-80
2023/03/20 07:08:32;;;;;;;14.38;6.78;;;8.40;99.90;;;;;;5155948;27;20046;-80
2023/03/20 07:10:58;;;;;;;14.85;6.35;;;8.50;99.90;;;;;;5155901;27;20134;-79
2023/03/20 07:13:25;;;;;;;12.30;6.38;;;8.50;99.90;;;;;;5120254;27;20486;-79
2023/03/20 07:15:51;;;;;;;11.73;5.85;;;8.50;99.90;;;;;;5155893;27;20046;-84
2023/03/20 07:18:17;;;;;;;10.90;5.80;;;8.50;99.90;;;;;;5155773;27;20043;-80
2023/03/20 07:20:43;;;;;;;13.35;6.00;;;8.50;99.90;;;;;;5155904;27;20039;-77
2023/03/20 07:23:09;;;;;;;11.40;6.07;;;8.50;99.90;;;;;;5155665;27;20034;-78
2023/03/20 07:25:35;;;;;;;10.25;6.13;;;8.50;99.90;;;;;;5155506;27;20474;-78
2023/03/20 07:28:01;;;;;;;12.00;6.07;;;8.50;99.90;;;;;;5136948;27;20043;-79
2023/03/20 07:30:26;;;;;;;15.90;6.82;;;8.70;99.90;;;;;;5155448;27;20038;-77
2023/03/20 07:32:52;;;;;;;11.35;5.63;;;8.60;99.90;;;;;;5155367;27;20046;-79
2023/03/20 07:35:19;;;;;;;14.93;6.57;;;8.80;99.90;;;;;;5155207;27;20049;-77
2023/03/20 07:37:44;;;;;;;10.95;6.00;;;8.60;99.90;;;;;;5137109;27;20084;-80
2023/03/20 07:40:10;;;;;;;12.23;5.82;;;8.60;99.90;;;;;;5155421;27;20078;-77
2023/03/20 07:42:36;;;;;;;14.68;6.20;;;8.60;99.90;;;;;;5155300;27;20046;-77
2023/03/20 07:45:02;;;;;;;12.07;5.90;;;8.90;99.90;;;;;;5155025;27;20031;-78
2023/03/20 07:47:28;;;;;;;12.57;5.85;;;8.60;99.90;;;;;;5155173;27;20486;-77
2023/03/20 07:49:53;;;;;;;13.27;5.68;;;9.10;99.90;;;;;;5155209;27;20086;-75
2023/03/20 07:52:19;;;;;;;11.55;6.25;;;8.90;99.90;;;;;;5154956;27;20133;-78
2023/03/20 07:54:44;;;;;;;10.20;6.03;;;8.80;99.90;;;;;;5136584;27;20101;-78
2023/03/20 07:57:10;;;;;;;10.13;5.60;;;8.80;99.90;;;;;;5136637;27;20107;-79
2023/03/20 07:59:37;;;;;;;11.60;6.18;;;8.90;99.90;;;;;;5155137;27;20142;-78
2023/03/20 08:02:03;;;;;;;11.35;5.70;;;8.80;99.90;;;;;;5155080;27;20089;-82
2023/03/20 08:04:29;;;;;;;11.38;6.32;;;8.90;99.90;;;;;;5155205;27;20050;-81
2023/03/20 08:06:54;;;;;;;11.95;5.80;;;8.80;99.90;;;;;;5159294;27;20080;-80
2023/03/20 08:09:20;;;;;;;11.52;6.05;;;8.90;99.90;;;;;;5140442;27;20089;-81
2023/03/20 08:11:46;;;;;;;19.23;6.65;;;9.00;99.90;;;;;;5159217;27;20035;-80
2023/03/20 08:14:12;;;;;;;10.57;5.60;;;9.00;99.90;;;;;;5159018;27;20042;-81
2023/03/20 08:16:37;;;;;;;13.38;6.78;;;9.00;99.90;;;;;;5159354;27;20035;-80
2023/03/20 08:19:05;;;;;;;11.18;5.72;;;9.00;99.90;;;;;;5159235;27;20392;-84
2023/03/20 08:21:31;;;;;;;12.30;6.22;;;9.10;99.90;;;;;;5136048;27;20043;-81
2023/03/20 08:23:57;;;;;;;14.60;6.55;;;9.10;99.90;;;;;;5143909;27;20094;-84
2023/03/20 08:26:24;;;;;;;14.25;6.18;;;9.10;99.90;;;;;;5138276;27;20043;-83
2023/03/20 08:28:49;;;;;;;14.32;6.43;;;9.10;99.90;;;;;;5137821;27;20047;-83
2023/03/20 08:31:16;;;;;;;9.98;6.22;;;9.20;99.90;;;;;;5137966;27;20627;-79
2023/03/20 08:33:43;;;;;;;13.45;7.20;;;9.30;99.90;;;;;;5137729;27;20043;-81
2023/03/20 08:36:09;;;;;;;11.90;6.45;;;9.30;99.90;;;;;;5102811;27;20087;-79
2023/03/20 08:38:35;;;;;;;15.57;6.63;;;9.30;99.90;;;;;;5137940;27;20469;-79
2023/03/20 08:41:00;;;;;;;14.57;7.18;;;9.30;99.90;;;;;;5137529;27;20092;-79
2023/03/20 08:43:26;;;;;;;12.45;6.30;;;9.40;99.90;;;;;;5138042;27;20091;-79
2023/03/20 08:45:52;;;;;;;13.52;7.25;;;9.40;99.90;;;;;;5137754;27;20039;-78
2023/03/20 08:48:17;;;;;;;16.25;7.18;;;9.50;99.90;;;;;;5118844;27;20597;-79
2023/03/20 08:50:43;;;;;;;11.02;6.43;;;9.60;99.90;;;;;;5137480;27;20039;-81
2023/03/20 08:53:09;;;;;;;13.88;7.88;;;9.70;99.90;;;;;;5085229;27;20406;-78
2023/03/20 08:55:36;;;;;;;15.03;7.07;;;9.80;99.90;;;;;;5137366;27;20043;-79
2023/03/20 08:58:02;;;;;;;;;;;9.90;99.90;;;;;;5137471;27;20539;-78
2023/03/20 09:00:28;;;;;;;13.93;6.68;;;10.00;99.90;;;;;;5136978;27;19923;-77
2023/03/20 09:02:53;;;;;;;13.90;6.93;;;10.10;99.90;;;;;;5137025;27;20050;-77
2023/03/20 09:05:19;;;;;;;12.23;6.45;;;10.80;99.90;;;;;;5137391;27;20055;-76
2023/03/20 09:07:45;;;;;;;12.93;6.63;;;10.30;99.90;;;;;;5136993;27;20398;-77
2023/03/20 09:10:11;;;;;;;12.82;6.40;;;10.30;99.90;;;;;;5137285;27;20427;-76
2023/03/20 09:12:37;;;;;;;10.93;6.00;;;10.40;99.90;;;;;;5135761;27;20043;-77
2023/03/20 09:15:04;;;;;;;12.23;6.28;;;10.50;99.90;;;;;;5136723;27;20040;-78
2023/03/20 09:17:30;;;;;;;15.45;6.57;;;10.70;99.90;;;;;;5117960;27;20111;-77
2023/03/20 09:19:56;;;;;;;11.65;6.32;;;10.70;99.90;;;;;;5137129;27;20398;-77
2023/03/20 09:22:22;;;;;;;13.87;6.80;;;10.80;99.90;;;;;;5136826;27;20043;-79
2023/03/20 09:24:48;;;;;;;13.10;6.63;;;10.80;99.90;;;;;;5118750;27;20754;-78
2023/03/20 09:27:13;;;;;;;14.85;6.18;;;10.80;99.90;;;;;;5136720;27;20043;-77
2023/03/20 09:29:40;;;;;;;16.45;6.65;;;10.80;99.90;;;;;;5136661;27;20139;-80
2023/03/20 09:32:06;;;;;;;15.15;6.85;;;10.80;99.90;;;;;;5137113;27;20088;-78
2023/03/20 09:34:31;;;;;;;12.00;6.40;;;10.70;99.90;;;;;;5136940;27;20047;-75
2023/03/20 09:36:57;;;;;;;17.33;6.82;;;10.80;99.90;;;;;;5136665;27;20050;-77
2023/03/20 09:39:23;;;;;;;9.98;5.22;;;11.00;99.90;;;;;;5118052;27;20395;-77
2023/03/20 09:41:49;;;;;;;12.27;6.13;;;10.70;99.90;;;;;;5136758;27;20047;-77
2023/03/20 09:44:49;;;;;;;14.68;6.13;;;10.90;99.90;;;;;;5136344;27;20406;-77
2023/03/20 09:48:07;;;;;;;13.32;6.50;;;10.90;99.90;;;;;;5066019;27;20421;-77
2023/03/20 09:50:59;;;;;;;13.43;6.18;;;11.00;99.90;;;;;;5052737;28;20110;-77
2023/03/20 09:53:36;;;;;;;10.90;5.93;;;11.00;99.90;;;;;;5052754;28;20045;-78
2023/03/20 09:56:03;;;;;;;13.80;6.53;;;11.10;99.90;;;;;;5120828;27;20137;-77
2023/03/20 09:58:32;;;;;;;13.95;6.30;;;11.20;99.90;;;;;;5135863;27;20062;-78
2023/03/20 10:01:01;;;;;;;12.75;5.82;;;11.30;99.90;;;;;;5117544;27;20051;-78
2023/03/20 10:03:41;;;;;;;11.20;6.05;;;11.40;99.90;;;;;;5117727;27;20045;-78
2023/03/20 10:06:13;;;;;;;11.05;5.43;;;11.50;99.90;;;;;;5136224;27;20043;-80
2023/03/20 10:08:39;;;;;;;14.82;6.47;;;11.60;99.90;;;;;;5136212;27;20482;-77
2023/03/20 10:11:37;;;;;;;10.80;5.80;;;11.50;99.90;;;;;;5135841;27;20043;-78
2023/03/20 10:14:20;;;;;;;10.27;6.03;;;11.50;99.90;;;;;;5135470;27;20493;-77
2023/03/20 10:17:07;;;;;;;10.77;5.82;;;11.60;99.90;;;;;;5135981;27;20383;-77
2023/03/20 10:19:52;;;;;;;11.55;5.47;;;11.60;99.90;;;;;;5135462;27;20137;-78
2023/03/20 10:22:25;;;;;;;12.43;5.72;;;11.60;99.90;;;;;;5135905;27;20047;-78
2023/03/20 10:25:06;;;;;;;12.00;5.95;;;11.60;99.90;;;;;;5135943;27;20050;-78
2023/03/20 10:27:47;;;;;;;10.35;5.22;;;11.60;99.90;;;;;;5135419;27;20051;-77
2023/03/20 10:30:25;;;;;;;10.23;4.85;;;11.70;99.90;;;;;;5134676;27;20047;-78
2023/03/20 10:33:25;;;;;;;8.35;5.00;;;11.80;99.90;;;;;;5135597;27;20079;-77
2023/03/20 10:36:28;;;;;;;11.27;4.53;;;11.90;99.90;;;;;;5135513;27;20092;-78
2023/03/20 10:39:19;;;;;;;8.07;4.60;;;11.80;99.90;;;;;;5135422;27;20054;-77
2023/03/20 10:41:57;;;;;;;11.63;4.35;;;11.80;99.90;;;;;;5135252;27;20047;-76
2023/03/20 10:44:36;;;;;;;14.75;4.78;;;11.70;99.90;;;;;;5135259;27;20035;-77
2023/03/20 10:47:07;;;;;;;8.93;4.60;;;11.60;99.90;;;;;;5117063;27;20364;-78
2023/03/20 10:49:56;;;;;;;8.38;4.38;;;11.60;99.90;;;;;;5111075;27;20115;-78
2023/03/20 10:52:28;;;;;;;10.18;4.57;;;11.50;99.90;;;;;;5111360;28;20055;-78
2023/03/20 10:55:19;;;;;;;9.13;5.28;;;11.50;99.90;;;;;;5110857;28;20097;-78
2023/03/20 10:57:55;;;;;;;11.30;5.20;;;11.40;99.90;;;;;;5110976;28;20050;-79
2023/03/20 11:00:23;;;;;;;13.00;5.88;;;11.50;99.90;;;;;;5111129;28;20047;-78
2023/03/20 11:02:49;;;;;;;11.65;6.45;;;11.60;99.90;;;;;;5110710;28;20039;-79
2023/03/20 11:05:33;;;;;;;12.07;5.97;;;11.50;99.90;;;;;;5110998;28;20112;-79
2023/03/20 11:08:07;;;;;;;13.65;5.85;;;11.50;99.90;;;;;;5109370;28;20491;-77
2023/03/20 11:10:35;;;;;;;11.32;6.35;;;11.50;99.90;;;;;;5111140;28;20050;-82
2023/03/20 11:13:28;;;;;;;12.82;5.78;;;11.50;99.90;;;;;;5109745;28;20371;-83
2023/03/20 11:15:55;;;;;;;11.93;5.93;;;11.50;99.90;;;;;;5110797;28;20055;-79
2023/03/20 11:18:24;;;;;;;11.48;6.85;;;11.70;99.90;;;;;;5110870;28;20054;-80
2023/03/20 11:20:53;;;;;;;11.65;6.25;;;11.40;99.90;;;;;;5109532;28;20054;-76
2023/03/20 11:23:29;;;;;;;12.20;6.15;;;11.30;99.90;;;;;;5110546;28;20058;-83
2023/03/20 11:25:58;;;;;;;12.68;6.30;;;11.50;99.90;;;;;;5110730;28;20574;-82
2023/03/20 11:28:34;;;;;;;13.10;5.97;;;11.10;99.90;;;;;;5117235;28;20058;-77
2023/03/20 11:31:12;;;;;;;13.25;6.22;;;11.00;99.90;;;;;;5110728;28;20044;-78
2023/03/20 11:33:42;;;;;;;13.23;5.97;;;10.90;99.90;;;;;;5110669;28;20052;-80
2023/03/20 11:36:28;;;;;;;9.80;5.70;;;10.80;99.90;;;;;;5110617;28;20043;-80
2023/03/20 11:39:20;;;;;;;11.52;6.07;;;10.80;99.90;;;;;;5109242;28;20048;-77
2023/03/20 11:41:52;;;;;;;13.13;6.20;;;10.60;99.90;;;;;;5109747;28;20056;-78
2023/03/20 11:44:28;;;;;;;12.68;5.05;;;10.50;99.90;;;;;;5110420;28;20048;-80
2023/03/20 11:46:57;;;;;;;11.43;5.25;;;10.50;99.90;;;;;;5110375;28;20089;-82
2023/03/20 11:49:24;;;;;;;11.40;5.22;;;10.40;99.90;;;;;;5109959;28;20548;-79
2023/03/20 11:51:51;;;;;;;;;;;10.40;99.90;;;;;;5110692;28;20048;-78
2023/03/20 11:54:20;;;;;;;10.23;5.32;;;10.40;99.90;;;;;;5109460;28;19926;-80
2023/03/20 11:56:55;;;;;;;13.60;5.40;;;10.40;99.90;;;;;;5109979;28;20054;-77
2023/03/20 11:59:24;;;;;;;10.15;5.35;;;10.50;99.90;;;;;;5105734;28;20051;-79
2023/03/20 12:01:54;;;;;;;11.75;5.00;;;10.50;99.90;;;;;;5095266;28;20040;-78
2023/03/20 12:04:29;;;;;;;9.85;4.75;;;10.60;99.90;;;;;;5094855;28;20047;-77
2023/03/20 12:07:11;;;;;;;10.30;5.97;;;10.70;99.90;;;;;;5094348;28;20040;-77
2023/03/20 12:09:45;;;;;;;9.50;5.03;;;10.70;99.90;;;;;;5094074;28;20080;-79
2023/03/20 12:12:44;;;;;;;10.77;5.25;;;10.70;99.90;;;;;;5093284;28;20050;-77
2023/03/20 12:15:27;;;;;;;12.18;5.15;;;10.70;99.90;;;;;;5094147;28;20507;-78
2023/03/20 12:18:16;;;;;;;10.18;5.57;;;10.70;99.90;;;;;;5094163;28;20123;-78
2023/03/20 12:21:00;;;;;;;11.18;5.72;;;10.60;99.90;;;;;;5095919;28;20542;-82
2023/03/20 12:23:33;;;;;;;11.15;5.70;;;10.60;99.90;;;;;;5095218;28;20075;-80
2023/03/20 12:26:06;;;;;;;11.13;4.68;;;10.60;99.90;;;;;;5096298;28;20059;-79
2023/03/20 12:28:40;;;;;;;10.80;5.38;;;10.90;99.90;;;;;;5095003;28;20047;-83
2023/03/20 12:31:21;;;;;;;13.05;5.15;;;10.70;99.90;;;;;;5094552;28;20505;-76
2023/03/20 12:34:15;;;;;;;9.02;4.88;;;10.90;99.90;;;;;;5095888;28;20048;-81
2023/03/20 12:36:47;;;;;;;8.43;4.75;;;10.70;99.90;;;;;;5095823;28;20044;-77
2023/03/20 12:39:18;;;;;;;8.23;4.75;;;10.80;99.90;;;;;;5095810;28;20106;-79
2023/03/20 12:42:01;;;;;;;10.05;4.28;;;11.20;99.90;;;;;;5094414;28;20051;-79
2023/03/20 12:45:11;;;;;;;8.55;4.40;;;10.80;99.90;;;;;;5094094;28;20040;-79
2023/03/20 12:47:42;;;;;;;9.77;4.40;;;10.90;99.90;;;;;;5014597;28;20096;-78
2023/03/20 12:50:24;;;;;;;6.15;3.63;;;11.30;99.90;;;;;;5087515;28;20056;-80
2023/03/20 12:53:26;;;;;;;7.03;3.45;;;10.90;99.90;;;;;;5094244;28;20373;-78
2023/03/20 12:56:00;;;;;;;11.60;3.92;;;10.90;99.90;;;;;;5095618;28;20054;-78
2023/03/20 12:58:37;;;;;;;7.25;4.20;;;11.90;99.90;;;;;;5095192;28;20047;-78
2023/03/20 13:01:05;;;;;;;7.22;3.25;;;10.90;99.90;;;;;;5094358;28;20127;-79
2023/03/20 13:03:46;;;;;;;5.82;3.60;;;10.90;99.90;;;;;;5094805;28;20479;-79
2023/03/20 13:06:14;;;;;;;7.38;3.53;;;10.90;99.90;;;;;;5095451;28;20399;-77
2023/03/20 13:09:13;;;;;;;5.40;2.55;;;10.90;99.90;;;;;;5094809;28;20124;-76